createdAt,value
2023-03-20T00:00:26.396Z,100218.00
2023-03-20T00:02:54.192Z,100226.00
2023-03-20T00:05:23.689Z,100223.00
2023-03-20T00:07:51.567Z,100226.00
2023-03-20T00:10:19.468Z,100222.00
2023-03-20T00:12:48.533Z,100223.00
2023-03-20T00:15:25.647Z,100226.00
2023-03-20T00:17:53.548Z,100227.00
2023-03-20T00:20:21.634Z,100235.00
2023-03-20T00:22:49.662Z,100231.00
2023-03-20T00:25:18.475Z,100236.00
2023-03-20T00:27:46.222Z,100226.00
2023-03-20T00:30:22.609Z,100233.00
2023-03-20T00:32:53.059Z,100230.00
2023-03-20T00:35:22.859Z,100232.00
2023-03-20T00:37:51.496Z,100224.00
2023-03-20T00:40:19.623Z,100217.00
2023-03-20T00:42:48.676Z,100217.00
2023-03-20T00:45:20.026Z,100228.00
2023-03-20T00:47:48.306Z,100218.00
2023-03-20T00:50:17.201Z,100226.00
2023-03-20T00:52:45.178Z,100214.00
2023-03-20T00:55:12.900Z,100222.00
2023-03-20T00:57:44.825Z,100219.00
2023-03-20T01:00:24.179Z,100224.00
2023-03-20T01:02:52.532Z,100219.00
2023-03-20T01:05:20.614Z,100227.00
2023-03-20T01:07:48.343Z,100228.00
2023-03-20T01:10:16.030Z,100218.00
2023-03-20T01:12:43.866Z,100216.00
2023-03-20T01:15:17.541Z,100223.00
2023-03-20T01:17:45.030Z,100226.00
2023-03-20T01:20:16.962Z,100231.00
2023-03-20T01:22:44.777Z,100230.00
2023-03-20T01:25:12.698Z,100233.00
2023-03-20T01:27:40.498Z,100232.00
2023-03-20T01:30:16.470Z,100235.00
2023-03-20T01:32:44.648Z,100233.00
2023-03-20T01:35:13.085Z,100226.00
2023-03-20T01:37:40.804Z,100230.00
2023-03-20T01:40:15.654Z,100229.00
2023-03-20T01:42:44.583Z,100226.00
2023-03-20T01:45:16.698Z,100228.00
2023-03-20T01:47:45.070Z,100216.00
2023-03-20T01:50:18.802Z,100228.00
2023-03-20T01:52:48.212Z,100235.00
2023-03-20T01:55:16.122Z,100234.00
2023-03-20T01:57:47.234Z,100237.00
2023-03-20T04:47:43.737Z,100317.00
2023-03-20T04:50:14.251Z,100319.00
2023-03-20T04:52:42.372Z,100317.00
2023-03-20T04:55:10.874Z,100317.00
2023-03-20T04:57:38.586Z,100316.00
2023-03-20T05:00:06.652Z,100325.00
2023-03-20T05:05:51.269Z,100326.00
2023-03-20T05:08:19.423Z,100319.00
2023-03-20T05:10:48.218Z,100320.00
2023-03-20T05:13:34.344Z,100317.00
2023-03-20T05:16:25.021Z,100312.00
2023-03-20T05:19:18.864Z,100310.00
2023-03-20T05:21:49.098Z,100308.00
2023-03-20T05:24:31.529Z,100307.00
2023-03-20T05:27:28.385Z,100302.00
2023-03-20T05:30:07.634Z,100307.00
2023-03-20T05:32:52.734Z,100310.00
2023-03-20T05:35:29.429Z,100309.00
2023-03-20T05:38:17.502Z,100311.00
2023-03-20T05:40:59.520Z,100308.00
2023-03-20T05:43:56.627Z,100318.00
2023-03-20T05:46:37.846Z,100320.00
2023-03-20T05:49:28.548Z,100318.00
2023-03-20T05:52:14.875Z,100313.00
2023-03-20T05:55:04.659Z,100319.00
2023-03-20T05:57:41.355Z,100318.00
2023-03-20T06:00:27.469Z,100315.00
2023-03-20T06:03:15.725Z,100315.00
2023-03-20T06:05:58.088Z,100301.00
2023-03-20T06:08:26.027Z,100304.00
2023-03-20T06:10:54.678Z,100311.00
2023-03-20T06:13:22.598Z,100311.00
2023-03-20T06:15:50.637Z,100309.00
2023-03-20T06:18:19.286Z,100318.00
2023-03-20T06:20:47.189Z,100316.00
2023-03-20T06:23:15.162Z,100314.00
2023-03-20T06:25:43.164Z,100322.00
2023-03-20T06:28:11.123Z,100322.00
2023-03-20T06:30:39.312Z,100322.00
2023-03-20T06:33:10.006Z,100326.00
2023-03-20T06:35:50.496Z,100330.00
2023-03-20T06:38:18.376Z,100337.00
2023-03-20T06:40:46.578Z,100325.00
2023-03-20T06:43:18.879Z,100342.00
2023-03-20T06:45:51.749Z,100335.00
2023-03-20T06:48:24.679Z,100332.00
2023-03-20T06:50:53.219Z,100345.00
2023-03-20T06:53:24.529Z,100344.00
2023-03-20T06:55:59.553Z,100349.00
2023-03-20T06:58:27.382Z,100346.00
2023-03-20T07:00:55.930Z,100343.00
2023-03-20T07:03:23.648Z,100342.00
2023-03-20T07:05:52.186Z,100348.00
2023-03-20T07:08:21.247Z,100351.00
2023-03-20T07:10:50.418Z,100349.00
2023-03-20T07:13:18.610Z,100346.00
2023-03-20T07:16:03.443Z,100346.00
2023-03-20T07:18:37.416Z,100354.00
2023-03-20T07:21:06.694Z,100352.00
2023-03-20T07:23:35.187Z,100352.00
2023-03-20T07:26:04.225Z,100357.00
2023-03-20T07:28:32.763Z,100363.00
2023-03-20T07:31:24.176Z,100362.00
2023-03-20T07:34:00.217Z,100371.00
2023-03-20T07:36:28.065Z,100368.00
2023-03-20T07:38:55.859Z,100369.00
2023-03-20T07:41:23.566Z,100378.00
2023-03-20T07:44:01.026Z,100382.00
2023-03-20T07:46:51.702Z,100380.00
2023-03-20T07:49:19.674Z,100386.00
2023-03-20T07:51:48.329Z,100386.00
2023-03-20T07:54:16.289Z,100380.00
2023-03-20T07:56:44.228Z,100377.00
2023-03-20T07:59:12.658Z,100376.00
2023-03-20T08:01:40.876Z,100380.00
2023-03-20T08:04:08.849Z,100385.00
2023-03-20T08:06:39.824Z,100377.00
2023-03-20T08:09:07.762Z,100377.00
2023-03-20T08:11:36.008Z,100378.00
2023-03-20T08:14:03.884Z,100382.00
2023-03-20T08:16:31.953Z,100385.00
2023-03-20T08:19:03.529Z,100375.00
2023-03-20T08:21:31.848Z,100382.00
2023-03-20T08:23:59.622Z,100384.00
2023-03-20T08:26:27.340Z,100371.00
2023-03-20T08:28:55.331Z,100371.00
2023-03-20T08:31:23.238Z,100370.00
2023-03-20T08:33:51.385Z,100362.00
2023-03-20T08:36:22.299Z,100366.00
2023-03-20T08:38:50.528Z,100368.00
2023-03-20T08:41:18.419Z,100365.00
2023-03-20T08:43:46.428Z,100369.00
2023-03-20T08:46:14.054Z,100364.00
2023-03-20T08:48:41.979Z,100372.00
2023-03-20T08:51:10.582Z,100377.00
2023-03-20T08:53:38.521Z,100386.00
2023-03-20T08:56:06.426Z,100382.00
2023-03-20T08:58:33.946Z,100388.00
2023-03-20T09:01:05.672Z,100390.00
2023-03-20T09:03:33.375Z,100388.00
2023-03-20T09:06:01.089Z,100381.00
2023-03-20T09:08:28.854Z,100390.00
2023-03-20T09:10:56.587Z,100380.00
2023-03-20T09:13:27.664Z,100384.00
2023-03-20T09:15:55.890Z,100376.00
2023-03-20T09:18:23.528Z,100376.00
2023-03-20T09:20:53.660Z,100380.00
2023-03-20T09:23:21.396Z,100376.00
2023-03-20T09:25:49.154Z,100378.00
2023-03-20T09:28:16.871Z,100389.00
2023-03-20T09:30:45.734Z,100387.00
2023-03-20T09:33:16.997Z,100402.00
2023-03-20T09:35:44.683Z,100399.00
2023-03-20T09:38:12.578Z,100399.00
2023-03-20T09:40:40.560Z,100409.00
2023-03-20T09:43:27.220Z,100409.00
2023-03-20T09:45:54.922Z,100405.00
2023-03-20T09:48:32.191Z,100406.00
2023-03-20T09:51:09.027Z,100408.00
2023-03-20T09:53:38.529Z,100404.00
2023-03-20T09:56:06.408Z,100406.00
2023-03-20T09:58:34.565Z,100408.00
2023-03-20T10:01:03.160Z,100404.00
2023-03-20T10:03:39.537Z,100409.00
2023-03-20T10:06:09.632Z,100398.00
2023-03-20T10:08:37.991Z,100398.00
2023-03-20T10:11:44.340Z,100394.00
2023-03-20T10:14:22.189Z,100395.00
2023-03-20T10:16:49.841Z,100404.00
2023-03-20T10:19:20.771Z,100412.00
2023-03-20T10:21:49.812Z,100412.00
2023-03-20T10:24:23.109Z,100407.00
2023-03-20T10:26:52.101Z,100404.00
2023-03-20T10:29:43.030Z,100403.00
2023-03-20T10:32:36.817Z,100402.00
2023-03-20T10:35:19.779Z,100397.00
2023-03-20T10:38:10.072Z,100397.00
2023-03-20T10:40:38.810Z,100395.00
2023-03-20T10:43:16.952Z,100401.00
2023-03-20T10:45:46.175Z,100405.00
2023-03-20T10:48:40.481Z,100401.00
2023-03-20T10:51:10.631Z,100404.00
2023-03-20T10:53:42.531Z,100399.00
2023-03-20T10:56:15.721Z,100404.00
2023-03-20T10:58:45.439Z,100406.00
2023-03-20T11:01:13.177Z,100404.00
2023-03-20T11:03:41.870Z,100412.00
2023-03-20T11:06:14.477Z,100412.00
2023-03-20T11:08:42.954Z,100412.00
2023-03-20T11:11:10.791Z,100408.00
2023-03-20T11:13:44.844Z,100406.00
2023-03-20T11:16:12.555Z,100401.00
2023-03-20T11:18:41.598Z,100392.00
2023-03-20T11:21:14.311Z,100387.00
2023-03-20T11:23:42.210Z,100390.00
2023-03-20T11:26:16.820Z,100389.00
2023-03-20T11:28:48.981Z,100389.00
2023-03-20T11:31:18.222Z,100382.00
2023-03-20T11:33:47.355Z,100384.00
2023-03-20T11:36:26.599Z,100380.00
2023-03-20T11:38:59.227Z,100375.00
2023-03-20T11:41:27.823Z,100368.00
2023-03-20T11:43:55.681Z,100368.00
2023-03-20T11:46:24.255Z,100366.00
2023-03-20T11:49:12.319Z,100366.00
2023-03-20T11:51:40.032Z,100362.00
2023-03-20T11:54:08.207Z,100359.00
2023-03-20T11:56:36.488Z,100363.00
2023-03-20T11:59:04.379Z,100368.00
2023-03-20T12:01:47.535Z,100369.00
2023-03-20T12:04:16.383Z,100371.00
2023-03-20T12:06:48.242Z,100363.00
2023-03-20T12:09:20.462Z,100362.00
2023-03-20T12:11:52.941Z,100363.00
2023-03-20T12:14:32.418Z,100360.00
2023-03-20T12:17:06.788Z,100350.00
2023-03-20T12:19:34.590Z,100347.00
2023-03-20T12:22:21.966Z,100346.00
2023-03-20T12:24:52.391Z,100347.00
2023-03-20T12:27:48.897Z,100335.00
2023-03-20T12:30:35.290Z,100340.00
2023-03-20T12:33:05.421Z,100337.00
2023-03-20T12:35:34.870Z,100333.00
2023-03-20T12:38:02.826Z,100326.00
2023-03-20T12:40:43.722Z,100323.00
2023-03-20T12:43:15.118Z,100320.00
2023-03-20T12:45:47.071Z,100317.00
2023-03-20T12:48:22.642Z,100332.00
2023-03-20T12:50:53.035Z,100322.00
2023-03-20T12:53:30.577Z,100324.00
2023-03-20T12:56:01.912Z,100312.00
2023-03-20T12:58:37.104Z,100310.00
2023-03-20T13:01:14.449Z,100301.00
2023-03-20T13:04:01.232Z,100300.00
2023-03-20T13:06:36.819Z,100296.00
2023-03-20T13:09:14.257Z,100296.00
2023-03-20T13:11:52.463Z,100305.00
2023-03-20T13:14:39.097Z,100310.00
2023-03-20T13:17:25.657Z,100305.00
2023-03-20T13:20:12.070Z,100302.00
2023-03-20T13:22:47.878Z,100298.00
2023-03-20T13:25:24.810Z,100300.00
2023-03-20T13:28:14.748Z,100293.00
2023-03-20T13:30:52.024Z,100298.00
2023-03-20T13:33:22.901Z,100291.00
2023-03-20T13:35:53.676Z,100288.00
2023-03-20T13:38:24.864Z,100285.00
2023-03-20T13:41:00.874Z,100286.00
2023-03-20T13:43:28.453Z,100292.00
2023-03-20T13:46:08.972Z,100286.00
2023-03-20T13:48:40.853Z,100285.00
2023-03-20T13:51:27.321Z,100284.00
2023-03-20T13:54:03.353Z,100288.00
2023-03-20T13:56:34.356Z,100282.00
2023-03-20T13:59:10.932Z,100285.00
2023-03-20T14:01:46.088Z,100286.00
2023-03-20T14:04:14.946Z,100288.00
2023-03-20T14:06:51.043Z,100291.00
2023-03-20T14:09:26.527Z,100273.00
2023-03-20T14:11:54.713Z,100265.00
2023-03-20T14:14:26.650Z,100274.00
2023-03-20T14:17:13.188Z,100269.00
2023-03-20T14:19:41.110Z,100265.00
2023-03-20T14:22:14.945Z,100265.00
2023-03-20T14:24:42.750Z,100269.00
2023-03-20T14:27:15.056Z,100273.00
2023-03-20T14:29:42.883Z,100275.00
2023-03-20T14:32:13.339Z,100267.00
2023-03-20T14:35:00.818Z,100260.00
2023-03-20T14:37:36.944Z,100266.00
2023-03-20T14:40:04.521Z,100262.00
2023-03-20T14:42:38.178Z,100259.00
2023-03-20T14:45:18.601Z,100259.00
2023-03-20T14:47:47.464Z,100258.00
2023-03-20T14:50:19.302Z,100262.00
2023-03-20T14:52:59.244Z,100260.00
2023-03-20T14:55:30.742Z,100260.00
2023-03-20T14:58:04.318Z,100256.00
2023-03-20T15:00:36.559Z,100262.00
2023-03-20T15:03:11.574Z,100268.00
2023-03-20T15:05:39.625Z,100263.00
2023-03-20T15:08:09.346Z,100273.00
2023-03-20T15:10:38.986Z,100265.00
2023-03-20T15:13:06.925Z,100268.00
2023-03-20T15:15:34.557Z,100265.00
2023-03-20T15:18:07.597Z,100267.00
2023-03-20T15:20:36.402Z,100252.00
2023-03-20T15:23:06.259Z,100253.00
2023-03-20T15:25:40.518Z,100260.00
2023-03-20T15:28:08.960Z,100261.00
2023-03-20T15:30:37.521Z,100255.00
2023-03-20T15:33:05.705Z,100258.00
2023-03-20T15:35:33.947Z,100262.00
2023-03-20T15:38:05.810Z,100258.00
2023-03-20T15:40:47.686Z,100255.00
2023-03-20T15:43:22.385Z,100264.00
2023-03-20T15:45:50.987Z,100255.00
2023-03-20T15:48:19.778Z,100262.00
2023-03-20T15:50:49.743Z,100267.00
2023-03-20T15:53:20.849Z,100258.00
2023-03-20T15:55:52.503Z,100251.00
2023-03-20T15:58:20.270Z,100255.00
2023-03-20T16:00:48.731Z,100274.00
2023-03-20T16:03:20.209Z,100255.00
2023-03-20T16:05:51.813Z,100255.00
2023-03-20T16:08:27.325Z,100259.00
2023-03-20T16:10:59.978Z,100252.00
2023-03-20T16:13:29.129Z,100254.00
2023-03-20T16:15:56.837Z,100252.00
2023-03-20T16:18:24.683Z,100256.00
2023-03-20T16:20:56.834Z,100258.00
2023-03-20T16:23:31.209Z,100268.00
2023-03-20T16:25:59.437Z,100257.00
2023-03-20T16:28:28.127Z,100255.00
2023-03-20T16:31:11.427Z,100260.00
2023-03-20T16:33:39.536Z,100259.00
2023-03-20T16:36:07.732Z,100262.00
2023-03-20T16:38:36.536Z,100250.00
2023-03-20T16:41:22.684Z,100254.00
2023-03-20T16:43:50.757Z,100261.00
2023-03-20T16:46:21.763Z,100248.00
2023-03-20T16:48:51.409Z,100251.00
2023-03-20T16:51:21.438Z,100250.00
2023-03-20T16:53:49.599Z,100261.00
2023-03-20T16:56:18.553Z,100259.00
2023-03-20T16:58:46.138Z,100262.00
2023-03-20T17:01:18.696Z,100266.00
2023-03-20T17:03:48.352Z,100262.00
2023-03-20T17:06:21.958Z,100264.00
2023-03-20T17:08:51.165Z,100270.00
2023-03-20T17:11:38.311Z,100263.00
2023-03-20T17:14:06.397Z,100254.00
2023-03-20T17:16:34.452Z,100263.00
2023-03-20T17:19:03.429Z,100267.00
2023-03-20T17:21:31.629Z,100269.00
2023-03-20T17:23:59.285Z,100274.00
2023-03-20T17:26:26.904Z,100275.00
2023-03-20T17:28:54.644Z,100274.00
2023-03-20T17:31:22.250Z,100273.00
2023-03-20T17:33:50.011Z,100277.00
2023-03-20T17:36:24.064Z,100282.00
2023-03-20T17:38:51.833Z,100278.00
2023-03-20T17:41:22.577Z,100281.00
2023-03-20T17:43:51.670Z,100280.00
2023-03-20T17:46:20.097Z,100288.00
2023-03-20T17:48:48.585Z,100290.00
2023-03-20T17:51:16.230Z,100288.00
2023-03-20T17:53:44.140Z,100294.00
2023-03-20T17:56:13.054Z,100289.00
2023-03-20T17:58:41.544Z,100287.00
2023-03-20T18:01:09.852Z,100292.00
2023-03-20T18:03:37.721Z,100285.00
2023-03-20T18:06:05.728Z,100302.00
2023-03-20T18:08:33.233Z,100291.00
2023-03-20T18:11:00.757Z,100293.00
2023-03-20T18:13:29.356Z,100297.00
2023-03-20T18:15:57.935Z,100290.00
2023-03-20T18:18:26.007Z,100291.00
2023-03-20T18:20:55.112Z,100290.00
2023-03-20T18:23:23.188Z,100302.00
2023-03-20T18:25:51.071Z,100288.00
2023-03-20T18:28:23.161Z,100291.00
2023-03-20T18:30:51.878Z,100288.00
2023-03-20T18:33:19.834Z,100286.00
2023-03-20T18:35:47.556Z,100275.00
2023-03-20T18:38:15.129Z,100284.00
2023-03-20T18:40:47.439Z,100274.00
2023-03-20T18:43:15.111Z,100270.00
2023-03-20T18:45:42.783Z,100267.00
2023-03-20T18:48:12.368Z,100280.00
2023-03-20T18:50:43.623Z,100275.00
2023-03-20T18:53:11.407Z,100276.00
2023-03-20T18:55:39.166Z,100273.00
2023-03-20T18:58:06.955Z,100285.00
2023-03-20T19:00:38.399Z,100283.00
2023-03-20T19:03:06.391Z,100283.00
2023-03-20T19:05:34.028Z,100284.00
2023-03-20T19:08:03.344Z,100285.00
2023-03-20T19:10:36.395Z,100284.00
2023-03-20T19:13:05.406Z,100292.00
2023-03-20T19:15:36.970Z,100274.00
2023-03-20T19:18:08.994Z,100276.00
2023-03-20T19:20:38.226Z,100275.00
2023-03-20T19:23:07.235Z,100275.00
2023-03-20T19:25:35.106Z,100279.00
2023-03-20T19:28:03.064Z,100283.00
2023-03-20T19:30:31.880Z,100277.00
2023-03-20T19:32:59.700Z,100283.00
2023-03-20T19:38:16.203Z,100289.00
2023-03-20T19:40:44.680Z,100284.00
2023-03-20T19:43:12.748Z,100286.00
2023-03-20T19:45:41.423Z,100284.00
2023-03-20T19:48:19.546Z,100288.00
2023-03-20T19:50:47.702Z,100286.00
2023-03-20T19:53:16.864Z,100287.00
2023-03-20T19:55:44.639Z,100282.00
2023-03-20T19:58:12.879Z,100287.00
2023-03-20T20:00:57.379Z,100288.00
2023-03-20T20:03:26.634Z,100288.00
2023-03-20T20:05:54.353Z,100288.00
2023-03-20T20:08:44.220Z,100284.00
2023-03-20T20:11:14.648Z,100286.00
2023-03-20T20:14:03.820Z,100279.00
2023-03-20T20:16:30.723Z,100288.00
2023-03-20T20:18:58.557Z,100285.00
2023-03-20T20:22:13.257Z,100284.00
2023-03-20T20:24:16.334Z,100288.00
2023-03-20T20:26:53.923Z,100286.00
2023-03-20T20:29:24.684Z,100294.00
2023-03-20T20:31:52.611Z,100287.00
2023-03-20T20:39:56.353Z,100279.00
2023-03-20T20:42:24.041Z,100281.00
2023-03-20T20:44:51.858Z,100285.00
2023-03-20T20:47:19.667Z,100286.00
2023-03-20T20:49:47.902Z,100289.00
2023-03-20T20:52:16.078Z,100282.00
2023-03-20T20:54:43.891Z,100285.00
2023-03-20T20:57:12.423Z,100289.00
2023-03-20T20:59:41.282Z,100289.00
2023-03-20T21:02:12.898Z,100287.00
2023-03-20T21:04:41.227Z,100284.00
2023-03-20T21:07:12.853Z,100288.00
2023-03-20T21:09:41.265Z,100289.00
2023-03-20T21:12:10.742Z,100289.00
2023-03-20T21:14:40.861Z,100288.00
2023-03-20T21:17:08.865Z,100292.00
2023-03-20T21:19:37.631Z,100297.00
2023-03-20T21:22:05.966Z,100291.00
2023-03-20T21:24:34.801Z,100292.00
2023-03-20T21:27:08.228Z,100290.00
2023-03-20T21:29:36.354Z,100283.00
2023-03-20T21:32:04.686Z,100283.00
2023-03-20T21:34:32.538Z,100288.00
2023-03-20T21:37:06.651Z,100289.00
2023-03-20T21:39:49.910Z,100284.00
2023-03-20T21:42:17.833Z,100282.00
2023-03-20T21:45:43.889Z,100288.00
2023-03-20T21:48:30.077Z,100299.00
2023-03-20T21:51:09.850Z,100287.00
2023-03-20T21:53:46.815Z,100298.00
2023-03-20T21:56:46.398Z,100288.00
2023-03-20T22:11:01.230Z,100306.00
2023-03-20T22:16:27.136Z,100305.00
2023-03-20T22:27:43.620Z,100306.00
2023-03-20T22:30:42.063Z,100309.00
2023-03-20T22:33:16.852Z,100311.00
2023-03-20T22:36:10.692Z,100305.00
2023-03-20T22:46:47.410Z,100304.00
2023-03-20T22:49:15.385Z,100296.00
2023-03-20T22:51:57.565Z,100299.00
2023-03-20T22:54:30.864Z,100295.00
2023-03-20T22:56:58.763Z,100300.00
2023-03-20T22:59:26.649Z,100295.00
2023-03-20T23:01:54.407Z,100297.00
2023-03-20T23:04:22.010Z,100289.00
2023-03-20T23:06:49.764Z,100293.00
2023-03-20T23:09:18.174Z,100282.00
2023-03-20T23:11:45.925Z,100286.00
2023-03-20T23:14:22.320Z,100284.00
2023-03-20T23:16:51.179Z,100281.00
2023-03-20T23:19:18.962Z,100285.00
2023-03-20T23:21:46.626Z,100288.00
2023-03-20T23:24:14.285Z,100284.00
2023-03-20T23:26:41.899Z,100285.00
2023-03-20T23:29:09.789Z,100278.00
2023-03-20T23:31:37.591Z,100283.00
2023-03-20T23:34:05.385Z,100283.00
2023-03-20T23:36:36.981Z,100281.00
2023-03-20T23:39:06.346Z,100277.00
2023-03-20T23:42:02.330Z,100281.00
2023-03-20T23:44:22.134Z,100274.00
2023-03-20T23:46:50.138Z,100276.00
2023-03-20T23:49:17.864Z,100276.00
2023-03-20T23:51:45.867Z,100270.00
2023-03-20T23:54:13.856Z,100271.00
2023-03-20T23:56:41.982Z,100274.00
2023-03-20T23:59:20.469Z,100265.00
